createdAt,value
2024-02-19T00:02:14.940Z,96901.03
2024-02-19T00:04:41.670Z,96906.44
2024-02-19T00:07:08.176Z,96902.50
2024-02-19T00:09:34.585Z,96901.03
2024-02-19T00:12:01.103Z,96905.34
2024-02-19T00:14:27.580Z,96911.19
2024-02-19T00:16:53.961Z,96911.97
2024-02-19T00:19:20.683Z,96908.84
2024-02-19T00:21:47.384Z,96915.66
2024-02-19T00:24:15.169Z,96912.44
2024-02-19T00:26:41.542Z,96923.94
2024-02-19T00:29:07.909Z,96915.22
2024-02-19T00:31:34.292Z,96902.34
2024-02-19T00:34:00.982Z,96896.16
2024-02-19T00:36:27.678Z,96897.72
2024-02-19T00:38:54.124Z,96899.88
2024-02-19T00:41:20.583Z,96895.72
2024-02-19T00:43:46.993Z,96904.66
2024-02-19T00:46:13.524Z,96899.38
2024-02-19T00:48:40.577Z,96902.72
2024-02-19T00:51:07.403Z,96893.41
2024-02-19T00:53:33.805Z,96894.09
2024-02-19T00:56:00.287Z,96882.16
2024-02-19T00:58:26.712Z,96882.56
2024-02-19T01:00:53.333Z,96887.28
2024-02-19T01:03:19.782Z,96886.06
2024-02-19T01:05:46.256Z,96884.09
2024-02-19T01:08:12.605Z,96880.75
2024-02-19T01:10:39.059Z,96886.50
2024-02-19T01:13:05.706Z,96893.56
2024-02-19T01:15:32.180Z,96893.00
2024-02-19T01:17:58.617Z,96890.44
2024-02-19T01:20:25.087Z,96901.84
2024-02-19T01:22:51.481Z,96906.56
2024-02-19T01:25:18.877Z,96916.81
2024-02-19T01:27:45.544Z,96911.03
2024-02-19T01:30:12.684Z,96902.97
2024-02-19T01:32:39.248Z,96899.88
2024-02-19T01:35:07.151Z,96894.81
2024-02-19T01:37:33.794Z,96897.06
2024-02-19T01:40:00.434Z,96892.94
2024-02-19T01:42:27.074Z,96890.91
2024-02-19T01:44:53.703Z,96897.97
2024-02-19T01:47:20.406Z,96895.88
2024-02-19T01:49:47.180Z,96893.91
2024-02-19T01:52:13.894Z,96889.59
2024-02-19T01:54:40.893Z,96899.41
2024-02-19T01:57:08.620Z,96896.22
2024-02-19T01:59:35.681Z,96888.56
2024-02-19T02:02:03.838Z,96878.13
2024-02-19T02:04:30.538Z,96879.56
2024-02-19T02:06:58.653Z,96872.47
2024-02-19T02:09:25.389Z,96874.53
2024-02-19T02:11:52.042Z,96877.44
2024-02-19T02:14:18.871Z,96873.69
2024-02-19T02:16:45.497Z,96875.56
2024-02-19T02:19:14.014Z,96869.06
2024-02-19T02:21:40.879Z,96874.88
2024-02-19T02:24:07.427Z,96871.63
2024-02-19T02:26:38.832Z,96874.88
2024-02-19T02:29:05.381Z,96873.19
2024-02-19T02:31:31.944Z,96865.75
2024-02-19T02:33:59.127Z,96859.63
2024-02-19T02:36:25.853Z,96860.16
2024-02-19T02:38:52.444Z,96861.84
2024-02-19T02:41:19.043Z,96857.84
2024-02-19T02:43:45.918Z,96857.94
2024-02-19T02:46:12.590Z,96855.94
2024-02-19T02:48:39.307Z,96845.69
2024-02-19T02:51:06.088Z,96844.28
2024-02-19T02:53:32.686Z,96840.13
2024-02-19T02:55:59.273Z,96839.66
2024-02-19T02:58:25.818Z,96840.63
2024-02-19T03:00:52.458Z,96839.78
2024-02-19T03:03:19.085Z,96847.56
2024-02-19T03:05:45.685Z,96837.59
2024-02-19T03:08:12.249Z,96838.03
2024-02-19T03:10:38.790Z,96831.81
2024-02-19T03:13:05.409Z,96835.25
2024-02-19T03:15:31.952Z,96829.00
2024-02-19T03:17:58.820Z,96826.56
2024-02-19T03:20:25.637Z,96834.75
2024-02-19T03:22:52.261Z,96834.63
2024-02-19T03:25:18.962Z,96831.97
2024-02-19T03:27:45.584Z,96832.09
2024-02-19T03:30:13.444Z,96829.59
2024-02-19T03:32:40.112Z,96825.94
2024-02-19T03:35:08.980Z,96828.72
2024-02-19T03:37:35.685Z,96829.81
2024-02-19T03:40:02.573Z,96828.56
2024-02-19T03:42:29.023Z,96833.66
2024-02-19T03:44:55.379Z,96833.13
2024-02-19T03:47:21.806Z,96828.56
2024-02-19T03:49:48.398Z,96833.66
2024-02-19T03:52:14.811Z,96832.56
2024-02-19T03:54:41.475Z,96832.00
2024-02-19T03:57:07.899Z,96824.72
2024-02-19T03:59:34.305Z,96832.09
2024-02-19T04:02:00.945Z,96835.72
2024-02-19T04:04:27.573Z,96835.03
2024-02-19T04:06:54.096Z,96833.97
2024-02-19T04:09:20.839Z,96834.25
2024-02-19T04:11:47.275Z,96834.94
2024-02-19T04:14:13.744Z,96837.72
2024-02-19T04:16:43.243Z,96837.50
2024-02-19T04:19:09.852Z,96829.31
2024-02-19T04:21:43.574Z,96831.00
2024-02-19T04:24:13.090Z,96827.59
2024-02-19T04:26:40.161Z,96833.31
2024-02-19T04:29:08.468Z,96831.94
2024-02-19T04:31:35.308Z,96828.06
2024-02-19T04:34:02.221Z,96825.00
2024-02-19T04:36:29.064Z,96830.06
2024-02-19T04:38:55.893Z,96837.34
2024-02-19T04:41:22.521Z,96831.59
2024-02-19T04:43:49.138Z,96839.03
2024-02-19T04:46:15.833Z,96839.13
2024-02-19T04:48:42.618Z,96840.63
2024-02-19T04:51:09.306Z,96837.59
2024-02-19T04:53:35.985Z,96845.56
2024-02-19T04:56:02.619Z,96844.50
2024-02-19T04:58:29.230Z,96854.19
2024-02-19T05:00:55.890Z,96856.03
2024-02-19T05:03:22.561Z,96843.50
2024-02-19T05:05:49.138Z,96845.97
2024-02-19T05:08:15.851Z,96844.56
2024-02-19T05:10:42.422Z,96841.22
2024-02-19T05:13:09.144Z,96847.25
2024-02-19T05:15:35.734Z,96851.03
2024-02-19T05:18:02.396Z,96851.88
2024-02-19T05:20:29.152Z,96847.28
2024-02-19T05:22:55.717Z,96846.19
2024-02-19T05:25:22.439Z,96842.94
2024-02-19T05:27:49.165Z,96836.78
2024-02-19T05:30:15.761Z,96838.69
2024-02-19T05:32:42.399Z,96835.09
2024-02-19T05:35:09.079Z,96848.97
2024-02-19T05:37:35.737Z,96849.38
2024-02-19T05:40:02.646Z,96846.72
2024-02-19T05:42:29.432Z,96848.38
2024-02-19T05:44:55.942Z,96848.06
2024-02-19T05:47:22.606Z,96853.66
2024-02-19T05:49:49.285Z,96857.28
2024-02-19T05:52:15.946Z,96853.66
2024-02-19T05:54:42.559Z,96852.38
2024-02-19T05:57:09.137Z,96858.09
2024-02-19T05:59:35.730Z,96852.28
2024-02-19T06:02:02.436Z,96852.00
2024-02-19T06:04:29.184Z,96854.47
2024-02-19T06:06:55.884Z,96857.28
2024-02-19T06:09:22.884Z,96848.06
2024-02-19T06:11:49.243Z,96858.34
2024-02-19T06:14:15.762Z,96863.13
2024-02-19T06:16:42.319Z,96863.91
2024-02-19T06:19:08.816Z,96863.81
2024-02-19T06:21:35.741Z,96877.28
2024-02-19T06:24:02.245Z,96875.44
2024-02-19T06:26:28.877Z,96877.25
2024-02-19T06:28:55.409Z,96874.94
2024-02-19T06:31:21.886Z,96872.00
2024-02-19T06:33:48.629Z,96864.78
2024-02-19T06:36:15.697Z,96865.06
2024-02-19T06:38:42.154Z,96861.19
2024-02-19T06:41:08.616Z,96862.00
2024-02-19T06:43:35.017Z,96864.50
2024-02-19T06:46:01.627Z,96868.69
2024-02-19T06:48:28.147Z,96863.69
2024-02-19T06:50:54.757Z,96875.38
2024-02-19T06:53:21.261Z,96880.00
2024-02-19T06:59:00.021Z,96882.66
2024-02-19T07:01:54.650Z,96876.69
2024-02-19T07:04:21.830Z,96887.25
2024-02-19T07:07:49.672Z,96895.44
2024-02-19T07:10:26.697Z,96894.44
2024-02-19T07:13:30.389Z,96889.34
2024-02-19T07:16:04.402Z,96892.09
2024-02-19T07:18:54.554Z,96892.38
2024-02-19T07:39:16.691Z,96906.00
2024-02-19T07:41:43.261Z,96909.56
2024-02-19T07:44:19.116Z,96913.16
2024-02-19T07:47:03.383Z,96907.84
2024-02-19T07:49:43.513Z,96903.38
2024-02-19T07:52:20.290Z,96898.97
2024-02-19T07:54:47.187Z,96892.44
2024-02-19T07:57:25.013Z,96903.09
2024-02-19T08:00:11.040Z,96897.91
2024-02-19T08:02:38.565Z,96903.13
2024-02-19T08:05:11.779Z,96917.69
2024-02-19T08:07:38.801Z,96930.56
2024-02-19T08:10:09.766Z,96928.56
2024-02-19T08:12:41.644Z,96936.66
2024-02-19T08:15:10.494Z,96929.72
2024-02-19T08:17:37.548Z,96933.81
2024-02-19T08:20:08.795Z,96936.84
2024-02-19T08:22:36.359Z,96943.09
2024-02-19T08:25:03.543Z,96946.56
2024-02-19T08:27:30.615Z,96941.53
2024-02-19T08:29:57.351Z,96946.28
2024-02-19T08:32:24.179Z,96945.34
2024-02-19T08:34:50.945Z,96955.00
2024-02-19T08:37:17.521Z,96958.34
2024-02-19T08:39:45.271Z,96953.41
2024-02-19T08:45:24.270Z,96965.84
2024-02-19T08:50:46.245Z,96957.53
2024-02-19T08:53:13.568Z,96953.19
2024-02-19T08:55:43.438Z,96955.88
2024-02-19T08:58:10.709Z,96959.44
2024-02-19T09:00:41.367Z,96950.78
2024-02-19T09:03:08.296Z,96951.38
2024-02-19T09:05:38.151Z,96947.16
2024-02-19T09:08:12.292Z,96954.31
2024-02-19T09:10:39.228Z,96959.06
2024-02-19T09:13:10.761Z,96946.19
2024-02-19T09:15:37.580Z,96951.47
2024-02-19T09:18:18.554Z,96951.34
2024-02-19T09:20:47.712Z,96949.78
2024-02-19T09:23:14.218Z,96948.63
2024-02-19T09:25:40.660Z,96950.91
2024-02-19T09:28:07.266Z,96953.44
2024-02-19T09:30:34.046Z,96953.09
2024-02-19T09:33:00.876Z,96951.44
2024-02-19T09:35:27.414Z,96958.34
2024-02-19T09:37:53.981Z,96962.69
2024-02-19T09:40:21.973Z,96962.72
2024-02-19T09:42:49.558Z,96966.00
2024-02-19T09:45:16.070Z,96955.09
2024-02-19T09:47:45.508Z,96952.03
2024-02-19T09:50:13.952Z,96948.91
2024-02-19T09:52:44.904Z,96955.25
2024-02-19T09:55:11.457Z,96957.97
2024-02-19T09:57:38.294Z,96955.25
2024-02-19T10:00:05.301Z,96959.75
2024-02-19T10:02:32.089Z,96958.69
2024-02-19T10:04:58.856Z,96955.78
2024-02-19T10:07:26.021Z,96948.91
2024-02-19T10:09:52.663Z,96943.13
2024-02-19T10:12:19.435Z,96944.66
2024-02-19T10:14:46.311Z,96937.56
2024-02-19T10:17:13.006Z,96944.50
2024-02-19T10:19:40.018Z,96937.19
2024-02-19T10:22:08.925Z,96936.31
2024-02-19T10:24:37.151Z,96932.19
2024-02-19T10:27:04.059Z,96930.31
2024-02-19T10:29:30.595Z,96924.41
2024-02-19T10:31:57.405Z,96928.09
2024-02-19T10:34:24.301Z,96924.66
2024-02-19T10:36:51.001Z,96929.97
2024-02-19T10:39:17.779Z,96933.16
2024-02-19T10:41:44.503Z,96934.00
2024-02-19T10:44:11.379Z,96935.72
2024-02-19T10:46:39.086Z,96933.25
2024-02-19T10:49:05.948Z,96932.72
2024-02-19T10:51:32.804Z,96931.06
2024-02-19T10:54:01.773Z,96925.59
2024-02-19T10:56:40.004Z,96915.47
2024-02-19T10:59:11.465Z,96919.59
2024-02-19T11:01:39.054Z,96918.81
2024-02-19T11:04:18.020Z,96915.84
2024-02-19T11:06:59.030Z,96918.50
2024-02-19T11:09:32.317Z,96913.13
2024-02-19T11:12:01.175Z,96916.19
2024-02-19T11:14:30.014Z,96917.06
2024-02-19T11:16:56.486Z,96907.56
2024-02-19T11:19:23.105Z,96895.78
2024-02-19T11:21:50.241Z,96899.78
2024-02-19T11:24:19.921Z,96891.16
2024-02-19T11:26:46.880Z,96889.78
2024-02-19T11:29:17.628Z,96890.91
2024-02-19T11:31:44.588Z,96888.94
2024-02-19T11:34:19.674Z,96890.00
2024-02-19T11:36:47.375Z,96882.06
2024-02-19T11:39:14.009Z,96878.75
2024-02-19T11:41:44.477Z,96877.59
2024-02-19T11:44:12.016Z,96883.69
2024-02-19T11:46:38.765Z,96872.41
2024-02-19T11:49:05.375Z,96871.97
2024-02-19T11:51:32.084Z,96865.84
2024-02-19T11:53:58.753Z,96869.66
2024-02-19T11:56:25.122Z,96865.06
2024-02-19T11:58:53.043Z,96865.38
2024-02-19T12:01:21.218Z,96867.84
2024-02-19T12:03:48.331Z,96863.84
2024-02-19T12:06:14.749Z,96856.25
2024-02-19T12:08:41.249Z,96857.88
2024-02-19T12:11:07.890Z,96848.63
2024-02-19T12:13:34.775Z,96851.94
2024-02-19T12:16:01.637Z,96846.63
2024-02-19T12:18:28.213Z,96848.59
2024-02-19T12:20:54.896Z,96845.91
2024-02-19T12:23:21.755Z,96838.28
2024-02-19T12:25:48.186Z,96839.28
2024-02-19T12:28:14.745Z,96827.69
2024-02-19T12:30:41.298Z,96838.66
2024-02-19T12:33:08.902Z,96827.69
2024-02-19T12:35:37.625Z,96826.38
2024-02-19T12:38:05.548Z,96826.75
2024-02-19T12:40:32.180Z,96824.25
2024-02-19T12:42:58.878Z,96817.81
2024-02-19T12:45:25.299Z,96820.81
2024-02-19T12:47:51.870Z,96829.06
2024-02-19T12:50:18.627Z,96820.47
2024-02-19T12:52:45.488Z,96825.44
2024-02-19T12:55:13.766Z,96813.81
2024-02-19T12:57:41.418Z,96818.31
2024-02-19T13:00:08.520Z,96822.78
2024-02-19T13:02:35.629Z,96822.78
2024-02-19T13:05:02.134Z,96821.13
2024-02-19T13:07:28.788Z,96824.75
2024-02-19T13:09:55.273Z,96811.16
2024-02-19T13:12:21.874Z,96808.47
2024-02-19T13:14:48.480Z,96801.03
2024-02-19T13:17:16.977Z,96802.88
2024-02-19T13:19:48.569Z,96810.25
2024-02-19T13:22:16.163Z,96819.81
2024-02-19T13:24:42.945Z,96813.28
2024-02-19T13:27:09.651Z,96804.84
2024-02-19T13:29:36.405Z,96805.03
2024-02-19T13:32:03.320Z,96801.25
2024-02-19T13:34:29.952Z,96804.72
2024-02-19T13:36:56.804Z,96799.09
2024-02-19T13:39:23.539Z,96799.09
2024-02-19T13:41:50.492Z,96791.78
2024-02-19T13:44:17.132Z,96793.94
2024-02-19T13:46:43.675Z,96798.25
2024-02-19T13:49:10.268Z,96791.78
2024-02-19T13:51:36.809Z,96791.59
2024-02-19T13:54:03.376Z,96797.56
2024-02-19T13:56:29.981Z,96801.97
2024-02-19T13:58:56.404Z,96804.72
2024-02-19T14:01:22.963Z,96802.78
2024-02-19T14:03:49.838Z,96797.75
2024-02-19T14:06:16.595Z,96799.13
2024-02-19T14:08:45.908Z,96796.69
2024-02-19T14:11:12.346Z,96807.69
2024-02-19T14:13:46.587Z,96809.41
2024-02-19T14:16:21.202Z,96811.59
2024-02-19T14:18:47.830Z,96810.31
2024-02-19T14:21:14.553Z,96801.50
2024-02-19T14:23:41.326Z,96790.09
2024-02-19T14:26:07.887Z,96787.53
2024-02-19T14:28:34.397Z,96783.94
2024-02-19T14:31:00.990Z,96770.31
2024-02-19T14:33:28.274Z,96770.06
2024-02-19T14:35:54.859Z,96768.28
2024-02-19T14:38:21.546Z,96769.88
2024-02-19T14:40:48.234Z,96767.13
2024-02-19T14:43:15.120Z,96778.19
2024-02-19T14:45:41.782Z,96771.56
2024-02-19T14:48:09.022Z,96780.34
2024-02-19T14:50:35.885Z,96781.31
2024-02-19T14:53:02.766Z,96771.16
2024-02-19T14:55:29.510Z,96778.28
2024-02-19T14:57:56.523Z,96771.41
2024-02-19T15:00:23.318Z,96763.56
2024-02-19T15:02:50.232Z,96756.19
2024-02-19T15:05:16.818Z,96755.88
2024-02-19T15:07:43.727Z,96754.19
2024-02-19T15:10:10.632Z,96748.59
2024-02-19T15:12:37.312Z,96758.22
2024-02-19T15:15:04.591Z,96743.03
2024-02-19T15:17:31.182Z,96743.34
2024-02-19T15:19:57.775Z,96744.53
2024-02-19T15:22:24.294Z,96739.91
2024-02-19T15:24:50.828Z,96727.75
2024-02-19T15:27:17.321Z,96737.28
2024-02-19T15:29:43.675Z,96730.41
2024-02-19T15:32:10.117Z,96725.88
2024-02-19T15:34:36.713Z,96728.25
2024-02-19T15:37:03.321Z,96726.81
2024-02-19T15:39:29.959Z,96733.94
2024-02-19T15:41:56.372Z,96723.91
2024-02-19T15:44:22.777Z,96728.56
2024-02-19T15:46:49.217Z,96731.84
2024-02-19T15:49:15.834Z,96736.94
2024-02-19T15:51:42.496Z,96739.06
2024-02-19T15:54:09.135Z,96743.53
2024-02-19T15:56:35.797Z,96741.97
2024-02-19T15:59:02.489Z,96738.97
2024-02-19T16:01:29.287Z,96736.91
2024-02-19T16:03:55.966Z,96732.19
2024-02-19T16:06:22.716Z,96735.38
2024-02-19T16:08:49.357Z,96751.94
2024-02-19T16:11:15.839Z,96733.09
2024-02-19T16:13:42.366Z,96742.19
2024-02-19T16:16:09.188Z,96743.19
2024-02-19T16:18:37.593Z,96734.06
2024-02-19T16:21:05.606Z,96741.91
2024-02-19T16:23:32.908Z,96741.59
2024-02-19T16:25:59.893Z,96745.25
2024-02-19T16:28:26.781Z,96740.84
2024-02-19T16:30:53.440Z,96728.53
2024-02-19T16:33:20.017Z,96724.75
2024-02-19T16:35:46.753Z,96724.91
2024-02-19T16:38:13.609Z,96715.13
2024-02-19T16:40:40.118Z,96716.44
2024-02-19T16:43:06.763Z,96722.25
2024-02-19T16:45:33.818Z,96731.00
2024-02-19T16:48:05.346Z,96727.69
2024-02-19T16:50:32.698Z,96725.38
2024-02-19T16:52:59.569Z,96727.38
2024-02-19T16:55:26.351Z,96730.69
2024-02-19T16:57:53.033Z,96726.72
2024-02-19T17:00:20.003Z,96732.00
2024-02-19T17:02:46.671Z,96725.88
2024-02-19T17:05:13.724Z,96726.06
2024-02-19T17:07:40.761Z,96736.25
2024-02-19T17:10:07.948Z,96737.50
2024-02-19T17:12:34.638Z,96729.28
2024-02-19T17:15:01.262Z,96726.66
2024-02-19T17:17:28.051Z,96732.28
2024-02-19T17:19:55.438Z,96733.94
2024-02-19T17:22:22.412Z,96742.59
2024-02-19T17:24:49.317Z,96739.44
2024-02-19T17:27:15.997Z,96740.38
2024-02-19T17:29:43.428Z,96735.84
2024-02-19T17:32:10.111Z,96732.88
2024-02-19T17:34:37.128Z,96743.78
2024-02-19T17:37:03.986Z,96740.53
2024-02-19T17:39:30.755Z,96746.66
2024-02-19T17:41:57.925Z,96743.88
2024-02-19T17:44:24.705Z,96736.09
2024-02-19T17:46:53.036Z,96733.94
2024-02-19T17:49:19.926Z,96733.84
2024-02-19T17:51:46.563Z,96742.88
2024-02-19T17:54:13.094Z,96738.22
2024-02-19T17:56:39.589Z,96726.66
2024-02-19T17:59:10.787Z,96734.41
2024-02-19T18:01:39.046Z,96726.63
2024-02-19T18:04:05.668Z,96723.34
2024-02-19T18:06:33.668Z,96721.00
2024-02-19T18:09:01.436Z,96718.34
2024-02-19T18:11:27.903Z,96708.91
2024-02-19T18:13:54.381Z,96715.97
2024-02-19T18:16:22.161Z,96709.03
2024-02-19T18:18:49.541Z,96704.59
2024-02-19T18:21:16.253Z,96708.22
2024-02-19T18:23:43.043Z,96699.78
2024-02-19T18:26:09.562Z,96700.28
2024-02-19T18:28:36.412Z,96685.88
2024-02-19T18:31:03.896Z,96690.69
2024-02-19T18:33:31.273Z,96693.81
2024-02-19T18:35:57.804Z,96695.09
2024-02-19T18:38:24.626Z,96706.72
2024-02-19T18:40:51.019Z,96727.25
2024-02-19T18:43:17.441Z,96724.47
2024-02-19T18:45:43.964Z,96725.63
2024-02-19T18:48:10.841Z,96724.56
2024-02-19T18:50:38.300Z,96726.59
2024-02-19T18:53:04.949Z,96714.75
2024-02-19T18:55:31.634Z,96726.66
2024-02-19T18:57:58.303Z,96727.50
2024-02-19T19:00:24.898Z,96742.28
2024-02-19T19:02:51.472Z,96742.25
2024-02-19T19:05:18.170Z,96746.22
2024-02-19T19:07:44.809Z,96748.50
2024-02-19T19:10:11.442Z,96753.03
2024-02-19T19:12:37.868Z,96757.63
2024-02-19T19:15:04.915Z,96747.44
2024-02-19T19:17:31.534Z,96732.63
2024-02-19T19:19:58.090Z,96734.81
2024-02-19T19:22:24.642Z,96724.81
2024-02-19T19:24:51.207Z,96718.91
2024-02-19T19:27:17.807Z,96723.75
2024-02-19T19:29:44.254Z,96725.66
2024-02-19T19:32:10.786Z,96717.66
2024-02-19T19:34:37.292Z,96720.88
2024-02-19T19:37:04.064Z,96721.91
2024-02-19T19:39:30.561Z,96718.28
2024-02-19T19:41:56.965Z,96713.75
2024-02-19T19:44:23.413Z,96708.31
2024-02-19T19:46:49.921Z,96709.38
2024-02-19T19:49:16.395Z,96697.31
2024-02-19T19:51:43.749Z,96703.13
2024-02-19T19:54:10.563Z,96707.59
2024-02-19T19:56:37.223Z,96700.66
2024-02-19T19:59:03.855Z,96704.28
2024-02-19T20:01:34.724Z,96692.72
2024-02-19T20:04:01.299Z,96701.00
2024-02-19T20:06:28.669Z,96702.00
2024-02-19T20:08:56.040Z,96698.81
2024-02-19T20:11:23.733Z,96701.72
2024-02-19T20:13:51.716Z,96679.47
2024-02-19T20:18:51.453Z,96673.56
2024-02-19T20:21:18.516Z,96679.88
2024-02-19T20:23:47.905Z,96684.16
2024-02-19T20:28:49.852Z,96696.91
2024-02-19T20:31:16.669Z,96698.19
2024-02-19T20:33:43.544Z,96707.22
2024-02-19T20:36:12.185Z,96714.03
2024-02-19T20:38:38.822Z,96714.53
2024-02-19T20:41:05.385Z,96716.44
2024-02-19T20:43:32.068Z,96721.41
2024-02-19T20:45:58.652Z,96721.72
2024-02-19T20:48:25.492Z,96728.06
2024-02-19T20:50:52.391Z,96724.53
2024-02-19T20:53:18.862Z,96733.75
2024-02-19T20:55:45.472Z,96735.47
2024-02-19T20:58:12.357Z,96741.84
2024-02-19T21:00:39.071Z,96736.94
2024-02-19T21:14:37.833Z,96737.47
2024-02-19T21:17:04.832Z,96737.78
2024-02-19T21:19:31.772Z,96735.81
2024-02-19T21:21:58.341Z,96743.97
2024-02-19T21:24:25.028Z,96730.94
2024-02-19T21:29:25.680Z,96724.75
2024-02-19T21:31:52.302Z,96709.09
2024-02-19T21:34:18.810Z,96711.88
2024-02-19T21:36:45.293Z,96709.78
2024-02-19T21:39:12.093Z,96709.47
2024-02-19T21:41:38.772Z,96709.44
2024-02-19T21:44:06.186Z,96705.59
2024-02-19T21:46:32.939Z,96706.94
2024-02-19T21:48:59.480Z,96718.50
2024-02-19T21:51:26.270Z,96717.06
2024-02-19T21:53:52.950Z,96707.31
2024-02-19T21:56:19.839Z,96715.19
2024-02-19T21:58:47.590Z,96724.47
2024-02-19T22:01:14.878Z,96723.59
2024-02-19T22:03:44.874Z,96726.03
2024-02-19T22:06:11.691Z,96713.22
2024-02-19T22:08:38.454Z,96714.19
2024-02-19T22:11:05.159Z,96718.78
2024-02-19T22:13:31.894Z,96715.19
2024-02-19T22:15:58.601Z,96714.31
2024-02-19T22:18:25.702Z,96716.38
2024-02-19T22:20:53.006Z,96707.75
2024-02-19T22:23:19.771Z,96711.25
2024-02-19T22:25:46.522Z,96712.84
2024-02-19T22:28:13.232Z,96715.91
2024-02-19T22:30:39.923Z,96720.44
2024-02-19T22:33:06.356Z,96718.03
2024-02-19T22:35:32.906Z,96715.19
2024-02-19T22:37:59.316Z,96715.47
2024-02-19T22:40:25.793Z,96715.69
2024-02-19T22:42:52.431Z,96713.16
2024-02-19T22:45:19.025Z,96716.69
2024-02-19T22:47:45.440Z,96713.44
2024-02-19T22:50:11.980Z,96708.38
2024-02-19T22:52:43.446Z,96708.97
2024-02-19T22:55:11.076Z,96719.47
2024-02-19T22:57:37.521Z,96709.63
2024-02-19T23:00:04.293Z,96711.66
2024-02-19T23:02:30.666Z,96701.91
2024-02-19T23:04:57.180Z,96713.66
2024-02-19T23:07:23.656Z,96718.31
2024-02-19T23:09:50.120Z,96709.13
2024-02-19T23:12:16.554Z,96711.66
2024-02-19T23:14:42.937Z,96713.44
2024-02-19T23:17:09.387Z,96710.38
2024-02-19T23:19:35.849Z,96713.66
2024-02-19T23:22:02.672Z,96718.72
2024-02-19T23:24:29.243Z,96717.13
2024-02-19T23:26:55.724Z,96719.28
2024-02-19T23:29:22.248Z,96725.34
2024-02-19T23:31:48.974Z,96723.47
2024-02-19T23:34:15.978Z,96721.88
2024-02-19T23:36:42.827Z,96736.38
2024-02-19T23:39:09.383Z,96741.03
2024-02-19T23:41:36.189Z,96739.56
2024-02-19T23:44:02.556Z,96734.53
2024-02-19T23:46:29.072Z,96742.25
2024-02-19T23:48:55.542Z,96735.13
2024-02-19T23:51:22.118Z,96739.81
2024-02-19T23:53:48.563Z,96743.72
2024-02-19T23:56:15.074Z,96733.41
2024-02-19T23:58:41.646Z,96733.97
